sensor_id;sensor_type;location;lat;lon;timestamp;P1;durP1;ratioP1;P2;durP2;ratioP2
7563;SDS011;3823;53.586;10.040;2023-02-15T00:01:31;158.07;;;40.45;;
7563;SDS011;3823;53.586;10.040;2023-02-15T00:03:57;182.90;;;40.70;;
7563;SDS011;3823;53.586;10.040;2023-02-15T00:06:23;94.07;;;36.95;;
7563;SDS011;3823;53.586;10.040;2023-02-15T00:08:48;86.15;;;35.75;;
7563;SDS011;3823;53.586;10.040;2023-02-15T00:11:15;99.95;;;36.70;;
7563;SDS011;3823;53.586;10.040;2023-02-15T00:13:42;170.38;;;40.30;;
7563;SDS011;3823;53.586;10.040;2023-02-15T00:16:09;114.78;;;38.50;;
7563;SDS011;3823;53.586;10.040;2023-02-15T00:18:36;115.05;;;38.50;;
7563;SDS011;3823;53.586;10.040;2023-02-15T00:21:08;152.25;;;38.55;;
7563;SDS011;3823;53.586;10.040;2023-02-15T00:23:35;182.15;;;41.58;;
7563;SDS011;3823;53.586;10.040;2023-02-15T00:26:08;116.47;;;41.08;;
7563;SDS011;3823;53.586;10.040;2023-02-15T00:28:35;189.82;;;40.38;;
7563;SDS011;3823;53.586;10.040;2023-02-15T00:33:34;137.13;;;38.83;;
7563;SDS011;3823;53.586;10.040;2023-02-15T00:36:00;105.93;;;38.47;;
7563;SDS011;3823;53.586;10.040;2023-02-15T00:38:27;104.60;;;41.80;;
7563;SDS011;3823;53.586;10.040;2023-02-15T00:40:54;115.35;;;38.40;;
7563;SDS011;3823;53.586;10.040;2023-02-15T00:43:20;122.68;;;39.80;;
7563;SDS011;3823;53.586;10.040;2023-02-15T00:45:46;119.18;;;41.10;;
7563;SDS011;3823;53.586;10.040;2023-02-15T00:48:12;135.15;;;37.90;;
7563;SDS011;3823;53.586;10.040;2023-02-15T00:50:37;119.75;;;40.85;;
7563;SDS011;3823;53.586;10.040;2023-02-15T00:53:03;98.78;;;35.78;;
7563;SDS011;3823;53.586;10.040;2023-02-15T00:55:29;128.80;;;38.85;;
7563;SDS011;3823;53.586;10.040;2023-02-15T00:57:54;106.75;;;40.72;;
7563;SDS011;3823;53.586;10.040;2023-02-15T01:00:20;92.30;;;37.33;;
7563;SDS011;3823;53.586;10.040;2023-02-15T01:02:45;95.78;;;34.10;;
7563;SDS011;3823;53.586;10.040;2023-02-15T01:05:11;104.70;;;37.28;;
7563;SDS011;3823;53.586;10.040;2023-02-15T01:07:37;124.65;;;39.72;;
7563;SDS011;3823;53.586;10.040;2023-02-15T01:10:03;115.78;;;37.75;;
7563;SDS011;3823;53.586;10.040;2023-02-15T01:12:30;162.57;;;37.03;;
7563;SDS011;3823;53.586;10.040;2023-02-15T01:14:56;145.50;;;38.55;;
7563;SDS011;3823;53.586;10.040;2023-02-15T01:17:21;89.57;;;37.40;;
7563;SDS011;3823;53.586;10.040;2023-02-15T01:19:47;170.25;;;40.85;;
7563;SDS011;3823;53.586;10.040;2023-02-15T01:22:12;119.50;;;38.45;;
7563;SDS011;3823;53.586;10.040;2023-02-15T01:24:38;102.75;;;35.80;;
7563;SDS011;3823;53.586;10.040;2023-02-15T01:27:03;87.40;;;36.15;;
7563;SDS011;3823;53.586;10.040;2023-02-15T01:29:29;137.75;;;39.03;;
7563;SDS011;3823;53.586;10.040;2023-02-15T01:31:55;137.52;;;36.10;;
7563;SDS011;3823;53.586;10.040;2023-02-15T01:34:20;88.10;;;36.53;;
7563;SDS011;3823;53.586;10.040;2023-02-15T01:36:46;93.38;;;35.97;;
7563;SDS011;3823;53.586;10.040;2023-02-15T01:39:11;122.50;;;39.42;;
7563;SDS011;3823;53.586;10.040;2023-02-15T01:41:37;110.82;;;35.22;;
7563;SDS011;3823;53.586;10.040;2023-02-15T01:44:03;97.50;;;37.17;;
7563;SDS011;3823;53.586;10.040;2023-02-15T01:46:50;107.25;;;38.10;;
7563;SDS011;3823;53.586;10.040;2023-02-15T01:49:18;90.95;;;35.08;;
7563;SDS011;3823;53.586;10.040;2023-02-15T01:51:50;126.97;;;37.80;;
7563;SDS011;3823;53.586;10.040;2023-02-15T01:54:21;100.20;;;37.75;;
7563;SDS011;3823;53.586;10.040;2023-02-15T01:56:49;84.47;;;34.78;;
7563;SDS011;3823;53.586;10.040;2023-02-15T01:59:16;121.25;;;35.97;;
7563;SDS011;3823;53.586;10.040;2023-02-15T02:01:45;94.97;;;36.63;;
7563;SDS011;3823;53.586;10.040;2023-02-15T02:04:31;139.55;;;36.85;;
7563;SDS011;3823;53.586;10.040;2023-02-15T02:07:05;99.07;;;37.80;;
7563;SDS011;3823;53.586;10.040;2023-02-15T02:09:31;82.15;;;34.47;;
7563;SDS011;3823;53.586;10.040;2023-02-15T02:11:57;113.93;;;37.17;;
7563;SDS011;3823;53.586;10.040;2023-02-15T02:14:23;95.20;;;34.70;;
7563;SDS011;3823;53.586;10.040;2023-02-15T02:16:56;124.35;;;36.40;;
7563;SDS011;3823;53.586;10.040;2023-02-15T02:19:45;124.38;;;36.15;;
7563;SDS011;3823;53.586;10.040;2023-02-15T02:33:18;104.22;;;37.03;;
7563;SDS011;3823;53.586;10.040;2023-02-15T02:43:55;94.43;;;34.22;;
7563;SDS011;3823;53.586;10.040;2023-02-15T02:46:33;97.47;;;35.85;;
7563;SDS011;3823;53.586;10.040;2023-02-15T02:49:16;164.55;;;38.08;;
7563;SDS011;3823;53.586;10.040;2023-02-15T02:51:41;131.15;;;38.90;;
7563;SDS011;3823;53.586;10.040;2023-02-15T02:54:07;132.95;;;38.80;;
7563;SDS011;3823;53.586;10.040;2023-02-15T02:56:35;93.97;;;36.65;;
7563;SDS011;3823;53.586;10.040;2023-02-15T02:59:12;100.32;;;35.50;;
7563;SDS011;3823;53.586;10.040;2023-02-15T03:01:50;84.60;;;37.70;;
7563;SDS011;3823;53.586;10.040;2023-02-15T03:04:27;107.85;;;37.30;;
7563;SDS011;3823;53.586;10.040;2023-02-15T03:07:01;207.30;;;43.58;;
7563;SDS011;3823;53.586;10.040;2023-02-15T03:09:33;113.93;;;36.33;;
7563;SDS011;3823;53.586;10.040;2023-02-15T03:12:21;133.80;;;36.95;;
7563;SDS011;3823;53.586;10.040;2023-02-15T03:14:53;167.10;;;37.33;;
7563;SDS011;3823;53.586;10.040;2023-02-15T03:17:22;228.00;;;42.53;;
7563;SDS011;3823;53.586;10.040;2023-02-15T03:19:51;100.97;;;36.05;;
7563;SDS011;3823;53.586;10.040;2023-02-15T03:22:26;100.53;;;36.58;;
7563;SDS011;3823;53.586;10.040;2023-02-15T03:25:19;124.15;;;39.33;;
7563;SDS011;3823;53.586;10.040;2023-02-15T03:28:09;115.57;;;39.67;;
7563;SDS011;3823;53.586;10.040;2023-02-15T03:30:40;110.75;;;37.10;;
7563;SDS011;3823;53.586;10.040;2023-02-15T03:33:10;113.53;;;37.60;;
7563;SDS011;3823;53.586;10.040;2023-02-15T03:38:38;151.98;;;39.45;;
7563;SDS011;3823;53.586;10.040;2023-02-15T03:41:09;90.53;;;37.20;;
7563;SDS011;3823;53.586;10.040;2023-02-15T03:43:40;127.63;;;38.47;;
7563;SDS011;3823;53.586;10.040;2023-02-15T03:46:12;92.25;;;36.05;;
7563;SDS011;3823;53.586;10.040;2023-02-15T03:48:46;107.95;;;36.40;;
7563;SDS011;3823;53.586;10.040;2023-02-15T03:51:23;93.68;;;35.70;;
7563;SDS011;3823;53.586;10.040;2023-02-15T03:53:59;126.68;;;36.70;;
7563;SDS011;3823;53.586;10.040;2023-02-15T03:56:34;83.30;;;32.65;;
7563;SDS011;3823;53.586;10.040;2023-02-15T03:59:04;78.10;;;31.83;;
7563;SDS011;3823;53.586;10.040;2023-02-15T04:01:59;93.80;;;32.33;;
7563;SDS011;3823;53.586;10.040;2023-02-15T04:04:47;96.20;;;33.30;;
7563;SDS011;3823;53.586;10.040;2023-02-15T04:07:13;101.60;;;31.05;;
7563;SDS011;3823;53.586;10.040;2023-02-15T04:09:38;89.35;;;31.05;;
7563;SDS011;3823;53.586;10.040;2023-02-15T04:12:23;94.35;;;34.05;;
7563;SDS011;3823;53.586;10.040;2023-02-15T04:14:49;110.72;;;31.35;;
7563;SDS011;3823;53.586;10.040;2023-02-15T04:17:33;85.85;;;30.98;;
7563;SDS011;3823;53.586;10.040;2023-02-15T04:20:00;99.97;;;30.92;;
7563;SDS011;3823;53.586;10.040;2023-02-15T04:22:45;92.43;;;33.40;;
7563;SDS011;3823;53.586;10.040;2023-02-15T04:25:29;87.82;;;32.97;;
7563;SDS011;3823;53.586;10.040;2023-02-15T04:27:54;82.05;;;32.45;;
7563;SDS011;3823;53.586;10.040;2023-02-15T04:30:21;92.22;;;34.20;;
7563;SDS011;3823;53.586;10.040;2023-02-15T04:32:49;180.52;;;38.63;;
7563;SDS011;3823;53.586;10.040;2023-02-15T04:35:14;97.00;;;34.67;;
7563;SDS011;3823;53.586;10.040;2023-02-15T04:37:41;158.75;;;40.05;;
7563;SDS011;3823;53.586;10.040;2023-02-15T04:40:08;92.57;;;34.50;;
7563;SDS011;3823;53.586;10.040;2023-02-15T04:42:35;70.70;;;30.98;;
7563;SDS011;3823;53.586;10.040;2023-02-15T04:45:01;79.47;;;33.40;;
7563;SDS011;3823;53.586;10.040;2023-02-15T04:47:27;80.43;;;29.23;;
7563;SDS011;3823;53.586;10.040;2023-02-15T04:49:53;119.45;;;34.22;;
7563;SDS011;3823;53.586;10.040;2023-02-15T04:52:18;83.18;;;30.15;;
7563;SDS011;3823;53.586;10.040;2023-02-15T04:54:44;108.72;;;31.38;;
7563;SDS011;3823;53.586;10.040;2023-02-15T04:57:10;107.75;;;31.95;;
7563;SDS011;3823;53.586;10.040;2023-02-15T04:59:36;69.65;;;28.35;;
7563;SDS011;3823;53.586;10.040;2023-02-15T05:02:01;93.25;;;32.30;;
7563;SDS011;3823;53.586;10.040;2023-02-15T05:04:27;79.97;;;29.48;;
7563;SDS011;3823;53.586;10.040;2023-02-15T05:06:53;87.25;;;30.02;;
7563;SDS011;3823;53.586;10.040;2023-02-15T05:09:18;87.95;;;30.67;;
7563;SDS011;3823;53.586;10.040;2023-02-15T05:11:44;102.55;;;32.97;;
7563;SDS011;3823;53.586;10.040;2023-02-15T05:14:09;79.20;;;27.95;;
7563;SDS011;3823;53.586;10.040;2023-02-15T05:16:35;78.93;;;30.10;;
7563;SDS011;3823;53.586;10.040;2023-02-15T05:19:01;80.68;;;31.08;;
7563;SDS011;3823;53.586;10.040;2023-02-15T05:21:26;84.97;;;30.17;;
7563;SDS011;3823;53.586;10.040;2023-02-15T05:23:52;78.30;;;30.42;;
7563;SDS011;3823;53.586;10.040;2023-02-15T05:26:19;147.40;;;34.75;;
7563;SDS011;3823;53.586;10.040;2023-02-15T05:29:05;106.43;;;29.30;;
7563;SDS011;3823;53.586;10.040;2023-02-15T05:31:31;146.35;;;33.75;;
7563;SDS011;3823;53.586;10.040;2023-02-15T05:33:57;117.55;;;32.33;;
7563;SDS011;3823;53.586;10.040;2023-02-15T05:36:22;137.40;;;34.08;;
7563;SDS011;3823;53.586;10.040;2023-02-15T05:38:48;123.32;;;33.55;;
7563;SDS011;3823;53.586;10.040;2023-02-15T05:41:14;126.95;;;33.13;;
7563;SDS011;3823;53.586;10.040;2023-02-15T05:43:40;78.32;;;30.80;;
7563;SDS011;3823;53.586;10.040;2023-02-15T05:46:06;148.75;;;33.13;;
7563;SDS011;3823;53.586;10.040;2023-02-15T05:48:32;170.57;;;37.35;;
7563;SDS011;3823;53.586;10.040;2023-02-15T05:51:06;135.32;;;37.20;;
7563;SDS011;3823;53.586;10.040;2023-02-15T05:53:36;139.50;;;34.00;;
7563;SDS011;3823;53.586;10.040;2023-02-15T05:56:03;187.35;;;34.65;;
7563;SDS011;3823;53.586;10.040;2023-02-15T05:58:31;195.40;;;34.35;;
7563;SDS011;3823;53.586;10.040;2023-02-15T06:00:58;184.00;;;34.47;;
7563;SDS011;3823;53.586;10.040;2023-02-15T06:03:24;121.07;;;32.17;;
7563;SDS011;3823;53.586;10.040;2023-02-15T06:05:50;157.18;;;37.55;;
7563;SDS011;3823;53.586;10.040;2023-02-15T06:08:17;151.57;;;36.38;;
7563;SDS011;3823;53.586;10.040;2023-02-15T06:10:44;117.72;;;32.58;;
7563;SDS011;3823;53.586;10.040;2023-02-15T06:13:10;131.52;;;32.22;;
7563;SDS011;3823;53.586;10.040;2023-02-15T06:15:36;188.82;;;38.25;;
7563;SDS011;3823;53.586;10.040;2023-02-15T06:18:02;196.65;;;38.67;;
7563;SDS011;3823;53.586;10.040;2023-02-15T06:20:27;145.85;;;37.50;;
7563;SDS011;3823;53.586;10.040;2023-02-15T06:22:53;111.93;;;32.80;;
7563;SDS011;3823;53.586;10.040;2023-02-15T06:25:19;136.80;;;32.65;;
7563;SDS011;3823;53.586;10.040;2023-02-15T06:27:44;118.43;;;31.17;;
7563;SDS011;3823;53.586;10.040;2023-02-15T06:30:10;99.40;;;33.67;;
7563;SDS011;3823;53.586;10.040;2023-02-15T06:32:36;93.15;;;29.48;;
7563;SDS011;3823;53.586;10.040;2023-02-15T06:35:02;119.20;;;32.38;;
7563;SDS011;3823;53.586;10.040;2023-02-15T06:37:28;112.22;;;33.83;;
7563;SDS011;3823;53.586;10.040;2023-02-15T06:39:53;157.23;;;34.85;;
7563;SDS011;3823;53.586;10.040;2023-02-15T06:42:19;144.25;;;39.08;;
7563;SDS011;3823;53.586;10.040;2023-02-15T06:44:45;132.13;;;37.35;;
7563;SDS011;3823;53.586;10.040;2023-02-15T06:47:11;124.97;;;32.78;;
7563;SDS011;3823;53.586;10.040;2023-02-15T06:49:37;87.95;;;29.67;;
7563;SDS011;3823;53.586;10.040;2023-02-15T06:52:03;73.78;;;31.52;;
7563;SDS011;3823;53.586;10.040;2023-02-15T06:54:29;90.20;;;29.38;;
7563;SDS011;3823;53.586;10.040;2023-02-15T06:56:55;158.18;;;34.63;;
7563;SDS011;3823;53.586;10.040;2023-02-15T06:59:20;155.75;;;32.72;;
7563;SDS011;3823;53.586;10.040;2023-02-15T07:01:46;147.05;;;37.10;;
7563;SDS011;3823;53.586;10.040;2023-02-15T07:04:12;114.93;;;30.23;;
7563;SDS011;3823;53.586;10.040;2023-02-15T07:06:38;93.90;;;29.52;;
7563;SDS011;3823;53.586;10.040;2023-02-15T07:09:03;83.03;;;31.15;;
7563;SDS011;3823;53.586;10.040;2023-02-15T07:11:29;81.97;;;28.85;;
7563;SDS011;3823;53.586;10.040;2023-02-15T07:14:14;129.00;;;34.30;;
7563;SDS011;3823;53.586;10.040;2023-02-15T07:16:39;81.18;;;29.38;;
7563;SDS011;3823;53.586;10.040;2023-02-15T07:19:05;83.05;;;31.48;;
7563;SDS011;3823;53.586;10.040;2023-02-15T07:21:32;120.95;;;31.58;;
7563;SDS011;3823;53.586;10.040;2023-02-15T07:23:58;123.35;;;30.00;;
7563;SDS011;3823;53.586;10.040;2023-02-15T07:26:24;92.93;;;28.70;;
7563;SDS011;3823;53.586;10.040;2023-02-15T07:28:50;76.13;;;28.38;;
7563;SDS011;3823;53.586;10.040;2023-02-15T07:31:16;75.88;;;31.80;;
7563;SDS011;3823;53.586;10.040;2023-02-15T07:33:41;122.15;;;31.92;;
7563;SDS011;3823;53.586;10.040;2023-02-15T07:36:07;75.65;;;29.20;;
7563;SDS011;3823;53.586;10.040;2023-02-15T07:38:37;109.20;;;32.55;;
7563;SDS011;3823;53.586;10.040;2023-02-15T07:41:04;121.57;;;32.25;;
7563;SDS011;3823;53.586;10.040;2023-02-15T07:43:32;112.60;;;31.75;;
7563;SDS011;3823;53.586;10.040;2023-02-15T07:46:01;79.13;;;30.40;;
7563;SDS011;3823;53.586;10.040;2023-02-15T07:48:28;107.95;;;31.35;;
7563;SDS011;3823;53.586;10.040;2023-02-15T07:50:54;134.73;;;33.58;;
7563;SDS011;3823;53.586;10.040;2023-02-15T07:53:23;80.68;;;31.17;;
7563;SDS011;3823;53.586;10.040;2023-02-15T07:55:48;81.03;;;30.92;;
7563;SDS011;3823;53.586;10.040;2023-02-15T07:58:14;68.28;;;30.50;;
7563;SDS011;3823;53.586;10.040;2023-02-15T08:00:40;146.40;;;35.22;;
7563;SDS011;3823;53.586;10.040;2023-02-15T08:03:26;93.65;;;29.52;;
7563;SDS011;3823;53.586;10.040;2023-02-15T08:05:57;107.50;;;33.45;;
7563;SDS011;3823;53.586;10.040;2023-02-15T08:08:24;84.78;;;31.80;;
7563;SDS011;3823;53.586;10.040;2023-02-15T08:11:00;86.28;;;30.70;;
7563;SDS011;3823;53.586;10.040;2023-02-15T08:13:46;137.90;;;32.53;;
7563;SDS011;3823;53.586;10.040;2023-02-15T08:16:22;91.15;;;31.48;;
7563;SDS011;3823;53.586;10.040;2023-02-15T08:18:49;87.38;;;31.95;;
7563;SDS011;3823;53.586;10.040;2023-02-15T08:21:16;137.77;;;33.65;;
7563;SDS011;3823;53.586;10.040;2023-02-15T08:23:42;86.97;;;32.17;;
7563;SDS011;3823;53.586;10.040;2023-02-15T08:26:07;125.55;;;33.15;;
7563;SDS011;3823;53.586;10.040;2023-02-15T08:28:33;91.47;;;32.58;;
7563;SDS011;3823;53.586;10.040;2023-02-15T08:31:05;97.32;;;32.50;;
7563;SDS011;3823;53.586;10.040;2023-02-15T08:33:36;119.22;;;31.50;;
7563;SDS011;3823;53.586;10.040;2023-02-15T08:36:06;78.93;;;28.65;;
7563;SDS011;3823;53.586;10.040;2023-02-15T08:38:34;118.38;;;33.85;;
7563;SDS011;3823;53.586;10.040;2023-02-15T08:41:11;101.95;;;32.20;;
7563;SDS011;3823;53.586;10.040;2023-02-15T08:43:37;84.03;;;30.40;;
7563;SDS011;3823;53.586;10.040;2023-02-15T08:46:03;88.70;;;29.23;;
7563;SDS011;3823;53.586;10.040;2023-02-15T08:48:30;84.88;;;32.25;;
7563;SDS011;3823;53.586;10.040;2023-02-15T08:50:55;94.20;;;30.10;;
7563;SDS011;3823;53.586;10.040;2023-02-15T08:53:21;190.43;;;40.67;;
7563;SDS011;3823;53.586;10.040;2023-02-15T08:55:47;241.90;;;40.00;;
7563;SDS011;3823;53.586;10.040;2023-02-15T08:58:20;109.05;;;35.30;;
7563;SDS011;3823;53.586;10.040;2023-02-15T09:00:46;87.32;;;34.28;;
7563;SDS011;3823;53.586;10.040;2023-02-15T09:03:11;106.75;;;30.85;;
7563;SDS011;3823;53.586;10.040;2023-02-15T09:05:37;77.22;;;30.00;;
7563;SDS011;3823;53.586;10.040;2023-02-15T09:08:02;94.60;;;31.75;;
7563;SDS011;3823;53.586;10.040;2023-02-15T09:10:28;81.22;;;29.30;;
7563;SDS011;3823;53.586;10.040;2023-02-15T09:12:53;68.50;;;28.67;;
7563;SDS011;3823;53.586;10.040;2023-02-15T09:15:19;104.18;;;34.00;;
7563;SDS011;3823;53.586;10.040;2023-02-15T09:17:45;131.68;;;35.22;;
7563;SDS011;3823;53.586;10.040;2023-02-15T09:20:10;79.05;;;29.35;;
7563;SDS011;3823;53.586;10.040;2023-02-15T09:22:36;82.10;;;31.48;;
7563;SDS011;3823;53.586;10.040;2023-02-15T09:25:01;118.90;;;34.90;;
7563;SDS011;3823;53.586;10.040;2023-02-15T09:27:27;74.00;;;28.95;;
7563;SDS011;3823;53.586;10.040;2023-02-15T09:29:54;74.55;;;29.55;;
7563;SDS011;3823;53.586;10.040;2023-02-15T09:32:19;151.52;;;35.42;;
7563;SDS011;3823;53.586;10.040;2023-02-15T09:34:45;106.55;;;33.97;;
7563;SDS011;3823;53.586;10.040;2023-02-15T09:37:10;99.80;;;31.88;;
7563;SDS011;3823;53.586;10.040;2023-02-15T09:39:37;99.07;;;32.47;;
7563;SDS011;3823;53.586;10.040;2023-02-15T09:50:36;101.10;;;31.63;;
7563;SDS011;3823;53.586;10.040;2023-02-15T10:01:41;65.22;;;29.50;;
7563;SDS011;3823;53.586;10.040;2023-02-15T10:12:34;70.88;;;31.00;;
7563;SDS011;3823;53.586;10.040;2023-02-15T10:18:27;71.05;;;30.25;;
7563;SDS011;3823;53.586;10.040;2023-02-15T10:21:02;69.88;;;29.77;;
7563;SDS011;3823;53.586;10.040;2023-02-15T10:26:18;60.25;;;28.92;;
7563;SDS011;3823;53.586;10.040;2023-02-15T10:31:17;60.78;;;29.73;;
7563;SDS011;3823;53.586;10.040;2023-02-15T10:33:48;72.55;;;30.38;;
7563;SDS011;3823;53.586;10.040;2023-02-15T10:36:39;95.28;;;30.02;;
7563;SDS011;3823;53.586;10.040;2023-02-15T10:39:31;69.65;;;30.30;;
7563;SDS011;3823;53.586;10.040;2023-02-15T10:47:54;67.43;;;29.95;;
7563;SDS011;3823;53.586;10.040;2023-02-15T10:53:18;58.88;;;28.55;;
7563;SDS011;3823;53.586;10.040;2023-02-15T11:01:36;60.17;;;30.92;;
7563;SDS011;3823;53.586;10.040;2023-02-15T11:07:18;66.30;;;29.70;;
7563;SDS011;3823;53.586;10.040;2023-02-15T11:09:51;63.22;;;32.75;;
7563;SDS011;3823;53.586;10.040;2023-02-15T11:12:38;71.20;;;30.40;;
7563;SDS011;3823;53.586;10.040;2023-02-15T11:15:19;63.42;;;31.02;;
7563;SDS011;3823;53.586;10.040;2023-02-15T11:17:52;65.88;;;31.67;;
7563;SDS011;3823;53.586;10.040;2023-02-15T11:20:27;68.75;;;31.88;;
7563;SDS011;3823;53.586;10.040;2023-02-15T11:23:13;60.53;;;32.15;;
7563;SDS011;3823;53.586;10.040;2023-02-15T11:25:41;73.20;;;31.63;;
7563;SDS011;3823;53.586;10.040;2023-02-15T11:28:13;63.38;;;32.28;;
7563;SDS011;3823;53.586;10.040;2023-02-15T11:30:48;62.60;;;29.75;;
7563;SDS011;3823;53.586;10.040;2023-02-15T11:33:27;65.13;;;30.98;;
7563;SDS011;3823;53.586;10.040;2023-02-15T11:36:00;61.65;;;31.42;;
7563;SDS011;3823;53.586;10.040;2023-02-15T11:38:32;63.97;;;29.27;;
7563;SDS011;3823;53.586;10.040;2023-02-15T11:41:09;67.18;;;31.58;;
7563;SDS011;3823;53.586;10.040;2023-02-15T11:46:12;59.05;;;27.35;;
7563;SDS011;3823;53.586;10.040;2023-02-15T11:48:39;61.95;;;31.30;;
7563;SDS011;3823;53.586;10.040;2023-02-15T11:51:05;57.40;;;30.23;;
7563;SDS011;3823;53.586;10.040;2023-02-15T11:53:36;68.63;;;32.03;;
7563;SDS011;3823;53.586;10.040;2023-02-15T11:56:02;63.00;;;31.17;;
7563;SDS011;3823;53.586;10.040;2023-02-15T11:58:43;59.47;;;31.65;;
7563;SDS011;3823;53.586;10.040;2023-02-15T12:04:18;62.92;;;33.10;;
7563;SDS011;3823;53.586;10.040;2023-02-15T12:07:09;69.40;;;31.48;;
7563;SDS011;3823;53.586;10.040;2023-02-15T12:14:59;59.78;;;29.38;;
7563;SDS011;3823;53.586;10.040;2023-02-15T12:17:27;60.70;;;31.77;;
7563;SDS011;3823;53.586;10.040;2023-02-15T12:20:28;58.67;;;31.00;;
7563;SDS011;3823;53.586;10.040;2023-02-15T12:22:55;60.20;;;28.98;;
7563;SDS011;3823;53.586;10.040;2023-02-15T12:25:49;56.75;;;30.60;;
7563;SDS011;3823;53.586;10.040;2023-02-15T12:28:32;51.75;;;29.73;;
7563;SDS011;3823;53.586;10.040;2023-02-15T12:31:01;57.03;;;29.50;;
7563;SDS011;3823;53.586;10.040;2023-02-15T12:33:30;58.35;;;29.73;;
7563;SDS011;3823;53.586;10.040;2023-02-15T12:36:02;50.00;;;28.45;;
7563;SDS011;3823;53.586;10.040;2023-02-15T12:38:35;50.78;;;28.77;;
7563;SDS011;3823;53.586;10.040;2023-02-15T12:41:05;49.22;;;28.85;;
7563;SDS011;3823;53.586;10.040;2023-02-15T12:49:39;48.88;;;27.30;;
7563;SDS011;3823;53.586;10.040;2023-02-15T12:52:11;55.95;;;29.05;;
7563;SDS011;3823;53.586;10.040;2023-02-15T12:54:49;47.72;;;27.40;;
7563;SDS011;3823;53.586;10.040;2023-02-15T12:57:31;52.83;;;27.70;;
7563;SDS011;3823;53.586;10.040;2023-02-15T13:02:35;51.15;;;28.52;;
7563;SDS011;3823;53.586;10.040;2023-02-15T13:08:11;47.42;;;29.75;;
7563;SDS011;3823;53.586;10.040;2023-02-15T13:10:57;52.63;;;27.50;;
7563;SDS011;3823;53.586;10.040;2023-02-15T13:13:27;43.63;;;26.25;;
7563;SDS011;3823;53.586;10.040;2023-02-15T13:15:56;55.80;;;28.67;;
7563;SDS011;3823;53.586;10.040;2023-02-15T13:23:45;54.97;;;29.40;;
7563;SDS011;3823;53.586;10.040;2023-02-15T13:26:20;57.58;;;31.30;;
7563;SDS011;3823;53.586;10.040;2023-02-15T13:28:49;50.97;;;28.48;;
7563;SDS011;3823;53.586;10.040;2023-02-15T13:31:19;52.83;;;29.65;;
7563;SDS011;3823;53.586;10.040;2023-02-15T13:33:50;49.20;;;27.40;;
7563;SDS011;3823;53.586;10.040;2023-02-15T13:36:21;47.63;;;27.48;;
7563;SDS011;3823;53.586;10.040;2023-02-15T13:44:39;50.72;;;27.90;;
7563;SDS011;3823;53.586;10.040;2023-02-15T13:47:17;50.42;;;28.77;;
7563;SDS011;3823;53.586;10.040;2023-02-15T13:53:25;44.75;;;26.75;;
7563;SDS011;3823;53.586;10.040;2023-02-15T13:55:36;41.97;;;26.58;;
7563;SDS011;3823;53.586;10.040;2023-02-15T13:58:08;42.10;;;26.23;;
7563;SDS011;3823;53.586;10.040;2023-02-15T14:00:54;38.63;;;23.60;;
7563;SDS011;3823;53.586;10.040;2023-02-15T14:11:59;34.75;;;21.58;;
7563;SDS011;3823;53.586;10.040;2023-02-15T14:17:26;38.50;;;24.23;;
7563;SDS011;3823;53.586;10.040;2023-02-15T14:20:15;36.35;;;23.17;;
7563;SDS011;3823;53.586;10.040;2023-02-15T14:25:42;38.70;;;23.42;;
7563;SDS011;3823;53.586;10.040;2023-02-15T14:28:16;33.78;;;22.77;;
7563;SDS011;3823;53.586;10.040;2023-02-15T14:30:52;38.03;;;24.17;;
7563;SDS011;3823;53.586;10.040;2023-02-15T14:35:50;33.75;;;22.15;;
7563;SDS011;3823;53.586;10.040;2023-02-15T14:41:10;33.58;;;21.73;;
7563;SDS011;3823;53.586;10.040;2023-02-15T14:46:41;36.60;;;22.00;;
7563;SDS011;3823;53.586;10.040;2023-02-15T14:49:24;38.35;;;23.77;;
7563;SDS011;3823;53.586;10.040;2023-02-15T14:51:56;37.38;;;24.20;;
7563;SDS011;3823;53.586;10.040;2023-02-15T15:02:12;36.38;;;23.40;;
7563;SDS011;3823;53.586;10.040;2023-02-15T15:07:26;40.45;;;24.10;;
7563;SDS011;3823;53.586;10.040;2023-02-15T15:12:41;33.60;;;21.92;;
7563;SDS011;3823;53.586;10.040;2023-02-15T15:15:07;32.17;;;21.00;;
7563;SDS011;3823;53.586;10.040;2023-02-15T15:22:40;33.90;;;21.25;;
7563;SDS011;3823;53.586;10.040;2023-02-15T15:32:52;38.53;;;23.05;;
7563;SDS011;3823;53.586;10.040;2023-02-15T15:35:33;41.78;;;24.88;;
7563;SDS011;3823;53.586;10.040;2023-02-15T15:38:39;37.67;;;22.45;;
7563;SDS011;3823;53.586;10.040;2023-02-15T15:41:24;36.65;;;24.13;;
7563;SDS011;3823;53.586;10.040;2023-02-15T15:44:04;39.65;;;23.00;;
7563;SDS011;3823;53.586;10.040;2023-02-15T15:49:19;53.00;;;25.80;;
7563;SDS011;3823;53.586;10.040;2023-02-15T15:51:46;48.42;;;25.42;;
7563;SDS011;3823;53.586;10.040;2023-02-15T15:54:17;44.10;;;24.77;;
7563;SDS011;3823;53.586;10.040;2023-02-15T15:56:49;41.05;;;24.60;;
7563;SDS011;3823;53.586;10.040;2023-02-15T15:59:26;37.58;;;22.85;;
7563;SDS011;3823;53.586;10.040;2023-02-15T16:01:54;44.42;;;25.35;;
7563;SDS011;3823;53.586;10.040;2023-02-15T16:04:27;36.97;;;23.80;;
7563;SDS011;3823;53.586;10.040;2023-02-15T16:06:57;47.40;;;25.35;;
7563;SDS011;3823;53.586;10.040;2023-02-15T16:10:03;45.58;;;24.40;;
7563;SDS011;3823;53.586;10.040;2023-02-15T16:12:45;39.17;;;22.38;;
7563;SDS011;3823;53.586;10.040;2023-02-15T16:15:14;35.65;;;23.63;;
7563;SDS011;3823;53.586;10.040;2023-02-15T16:17:45;40.17;;;24.42;;
7563;SDS011;3823;53.586;10.040;2023-02-15T16:20:18;38.88;;;23.70;;
7563;SDS011;3823;53.586;10.040;2023-02-15T16:22:50;45.47;;;25.77;;
7563;SDS011;3823;53.586;10.040;2023-02-15T16:28:11;38.45;;;23.75;;
7563;SDS011;3823;53.586;10.040;2023-02-15T16:30:37;45.47;;;26.08;;
7563;SDS011;3823;53.586;10.040;2023-02-15T16:33:11;39.05;;;25.30;;
7563;SDS011;3823;53.586;10.040;2023-02-15T16:35:40;37.80;;;24.88;;
7563;SDS011;3823;53.586;10.040;2023-02-15T16:38:19;42.60;;;24.70;;
7563;SDS011;3823;53.586;10.040;2023-02-15T16:40:54;40.78;;;24.42;;
7563;SDS011;3823;53.586;10.040;2023-02-15T16:43:24;43.67;;;24.90;;
7563;SDS011;3823;53.586;10.040;2023-02-15T16:45:54;39.80;;;24.63;;
7563;SDS011;3823;53.586;10.040;2023-02-15T16:48:28;35.40;;;23.02;;
7563;SDS011;3823;53.586;10.040;2023-02-15T16:50:54;48.33;;;25.20;;
7563;SDS011;3823;53.586;10.040;2023-02-15T16:53:24;45.08;;;26.58;;
7563;SDS011;3823;53.586;10.040;2023-02-15T16:55:52;40.28;;;24.23;;
7563;SDS011;3823;53.586;10.040;2023-02-15T16:58:23;42.10;;;24.38;;
7563;SDS011;3823;53.586;10.040;2023-02-15T17:00:57;42.80;;;23.98;;
7563;SDS011;3823;53.586;10.040;2023-02-15T17:03:24;43.05;;;24.88;;
7563;SDS011;3823;53.586;10.040;2023-02-15T17:05:52;40.38;;;24.95;;
7563;SDS011;3823;53.586;10.040;2023-02-15T17:08:25;45.30;;;24.55;;
7563;SDS011;3823;53.586;10.040;2023-02-15T17:13:38;38.97;;;24.00;;
7563;SDS011;3823;53.586;10.040;2023-02-15T17:18:30;40.35;;;24.40;;
7563;SDS011;3823;53.586;10.040;2023-02-15T17:21:17;43.17;;;25.00;;
7563;SDS011;3823;53.586;10.040;2023-02-15T17:23:46;41.88;;;26.00;;
7563;SDS011;3823;53.586;10.040;2023-02-15T17:28:59;44.28;;;25.73;;
7563;SDS011;3823;53.586;10.040;2023-02-15T17:31:35;42.63;;;24.08;;
7563;SDS011;3823;53.586;10.040;2023-02-15T17:34:01;36.13;;;22.48;;
7563;SDS011;3823;53.586;10.040;2023-02-15T17:36:28;43.10;;;25.45;;
7563;SDS011;3823;53.586;10.040;2023-02-15T17:41:24;42.65;;;25.15;;
7563;SDS011;3823;53.586;10.040;2023-02-15T17:43:50;44.45;;;27.40;;
7563;SDS011;3823;53.586;10.040;2023-02-15T17:46:16;39.85;;;24.10;;
7563;SDS011;3823;53.586;10.040;2023-02-15T17:48:45;33.58;;;22.48;;